Terminal Aerodrome Forecast
Issued by NWS

Home | Current Version | Previous Version | Graphics & Text | Print | Product List | Glossary On
Versions: 1 2 3 4 5 6 7 8 9 10 11 12 13 14 15 16
000
FTUS43 KMPX 080306 AAA
TAFRWF
TAF AMD
KRWF 080306Z 0803/0824 29017G25KT P6SM OVC060
     FM080700 29018G26KT P6SM OVC050
     FM081200 30017G26KT P6SM -SN OVC035
     FM081500 30017G25KT P6SM -SN OVC015
     FM082100 31015G24KT P6SM OVC025=

USA.gov is the U.S. government's official web portal to all federal, state and local government web resources and services.